LOT1LB EPWA-LJLJ
Flight info
| Callsign | LOT1LB |
|---|---|
| Flight time | 1h 13m |
| Altitude | 34000 |
| Route | EVINA N744 TUSIN DCT MIKOV DCT RADLY DCT OFROZ OFROZ1R |
| Aircraft | B738/M-SDE2E3FGHIJ1RWXYZ/HLSB1 |
Departure
| Time | 2026-04-20 13:35 |
|---|---|
| Airport | Warsaw Chopin Airport (EPWA) |
Arrival
| Time | 2026-04-20 14:48 |
|---|---|
| Airport | Ljubljana Jože Pučnik Airport (LJLJ) |
| Time | Latitude | Longitude | Altitude | Speed | Heading |
|---|---|---|---|---|---|
| 2026-04-20 13:14 | 52.16914 | 20.97226 | 333 ft | 0 kts | 76° |
| 2026-04-20 13:28 | 52.16914 | 20.97222 | 338 ft | 2 kts | 76° |
| 2026-04-20 13:28 | 52.16907 | 20.97181 | 335 ft | 4 kts | 76° |
| 2026-04-20 13:28 | 52.16902 | 20.97145 | 332 ft | 2 kts | 76° |
| 2026-04-20 13:28 | 52.16893 | 20.97107 | 334 ft | 4 kts | 44° |
| 2026-04-20 13:29 | 52.16872 | 20.97092 | 335 ft | 4 kts | 344° |
| 2026-04-20 13:29 | 52.16863 | 20.97097 | 336 ft | 0 kts | 332° |
| 2026-04-20 13:31 | 52.16871 | 20.97091 | 334 ft | 5 kts | 332° |
| 2026-04-20 13:31 | 52.16928 | 20.97041 | 338 ft | 11 kts | 332° |
| 2026-04-20 13:31 | 52.16996 | 20.96983 | 335 ft | 12 kts | 332° |
| 2026-04-20 13:32 | 52.17076 | 20.96912 | 337 ft | 14 kts | 332° |
| 2026-04-20 13:32 | 52.17159 | 20.96833 | 338 ft | 9 kts | 310° |
| 2026-04-20 13:32 | 52.17148 | 20.96744 | 335 ft | 8 kts | 243° |
| 2026-04-20 13:32 | 52.17127 | 20.96649 | 337 ft | 10 kts | 282° |
| 2026-04-20 13:33 | 52.17197 | 20.96566 | 336 ft | 17 kts | 332° |
| 2026-04-20 13:33 | 52.17333 | 20.96448 | 336 ft | 27 kts | 333° |
| 2026-04-20 13:33 | 52.17510 | 20.96294 | 337 ft | 28 kts | 332° |
| 2026-04-20 13:33 | 52.17582 | 20.96157 | 336 ft | 11 kts | 265° |
| 2026-04-20 13:34 | 52.17538 | 20.96060 | 334 ft | 11 kts | 208° |
| 2026-04-20 13:34 | 52.17456 | 20.95993 | 337 ft | 14 kts | 205° |
| 2026-04-20 13:34 | 52.17360 | 20.96023 | 335 ft | 21 kts | 152° |
| 2026-04-20 13:34 | 52.17019 | 20.96321 | 334 ft | 90 kts | 151° |
| 2026-04-20 13:35 | 52.16294 | 20.96953 | 336 ft | 147 kts | 152° |
| 2026-04-20 13:35 | 52.15295 | 20.97812 | 714 ft | 166 kts | 148° |
| 2026-04-20 13:35 | 52.14279 | 20.98693 | 1557 ft | 166 kts | 146° |
| 2026-04-20 13:35 | 52.13195 | 20.99656 | 2015 ft | 192 kts | 147° |
| 2026-04-20 13:36 | 52.11928 | 21.00594 | 2418 ft | 217 kts | 165° |
| 2026-04-20 13:36 | 52.10361 | 21.00171 | 2826 ft | 245 kts | 206° |
| 2026-04-20 13:36 | 52.08881 | 20.98546 | 3324 ft | 265 kts | 213° |
| 2026-04-20 13:36 | 52.07358 | 20.96780 | 4110 ft | 271 kts | 213° |
| 2026-04-20 13:37 | 52.05810 | 20.95005 | 5024 ft | 274 kts | 212° |
| 2026-04-20 13:37 | 52.04248 | 20.93196 | 5840 ft | 279 kts | 218° |
| 2026-04-20 13:37 | 52.03080 | 20.90656 | 6640 ft | 286 kts | 246° |
| 2026-04-20 13:37 | 52.02341 | 20.87659 | 7533 ft | 287 kts | 248° |
| 2026-04-20 13:38 | 52.01613 | 20.84623 | 8329 ft | 291 kts | 248° |
| 2026-04-20 13:38 | 52.00877 | 20.81559 | 9182 ft | 293 kts | 248° |
| 2026-04-20 13:38 | 52.00128 | 20.78468 | 10005 ft | 296 kts | 248° |
| 2026-04-20 13:38 | 51.99360 | 20.75317 | 10534 ft | 309 kts | 248° |
| 2026-04-20 13:39 | 51.98532 | 20.71943 | 10697 ft | 334 kts | 248° |
| 2026-04-20 13:39 | 51.97645 | 20.68341 | 10948 ft | 354 kts | 248° |
| 2026-04-20 13:39 | 51.96712 | 20.64568 | 11449 ft | 363 kts | 248° |
| 2026-04-20 13:39 | 51.95749 | 20.60792 | 12286 ft | 364 kts | 244° |
| 2026-04-20 13:40 | 51.94218 | 20.57532 | 12986 ft | 368 kts | 220° |
| 2026-04-20 13:40 | 51.92027 | 20.55406 | 13836 ft | 366 kts | 200° |
| 2026-04-20 13:40 | 51.89701 | 20.54077 | 14909 ft | 358 kts | 199° |
| 2026-04-20 13:40 | 51.87327 | 20.52732 | 15373 ft | 367 kts | 199° |
| 2026-04-20 13:41 | 51.84849 | 20.51321 | 15810 ft | 376 kts | 200° |
| 2026-04-20 13:41 | 51.82376 | 20.49902 | 16449 ft | 379 kts | 200° |
| 2026-04-20 13:41 | 51.79909 | 20.48476 | 16984 ft | 385 kts | 200° |
| 2026-04-20 13:41 | 51.77367 | 20.47000 | 17499 ft | 391 kts | 200° |
| 2026-04-20 13:42 | 51.74794 | 20.45504 | 18031 ft | 396 kts | 200° |
| 2026-04-20 13:42 | 51.69553 | 20.42459 | 19046 ft | 404 kts | 200° |
| 2026-04-20 13:42 | 51.66900 | 20.40922 | 19574 ft | 407 kts | 201° |
| 2026-04-20 13:43 | 51.64180 | 20.39605 | 20075 ft | 410 kts | 190° |
| 2026-04-20 13:43 | 51.61334 | 20.39099 | 20623 ft | 413 kts | 185° |
| 2026-04-20 13:43 | 51.58466 | 20.38771 | 21191 ft | 414 kts | 184° |
| 2026-04-20 13:43 | 51.55586 | 20.38441 | 21651 ft | 418 kts | 185° |
| 2026-04-20 13:44 | 51.52667 | 20.38064 | 22063 ft | 422 kts | 185° |
| 2026-04-20 13:44 | 51.49733 | 20.37648 | 22528 ft | 425 kts | 185° |
| 2026-04-20 13:44 | 51.46777 | 20.37205 | 22992 ft | 428 kts | 185° |
| 2026-04-20 13:44 | 51.43814 | 20.36756 | 23641 ft | 427 kts | 185° |
| 2026-04-20 13:45 | 51.40860 | 20.36289 | 24127 ft | 427 kts | 188° |
| 2026-04-20 13:45 | 51.38008 | 20.34942 | 24467 ft | 431 kts | 207° |
| 2026-04-20 13:45 | 51.35501 | 20.32301 | 24846 ft | 433 kts | 217° |
| 2026-04-20 13:45 | 51.33103 | 20.29357 | 25217 ft | 436 kts | 218° |
| 2026-04-20 13:46 | 51.30706 | 20.26374 | 25586 ft | 438 kts | 218° |
| 2026-04-20 13:46 | 51.28293 | 20.23392 | 25960 ft | 439 kts | 218° |
| 2026-04-20 13:46 | 51.25858 | 20.20417 | 26301 ft | 442 kts | 217° |
| 2026-04-20 13:46 | 51.23405 | 20.17453 | 26672 ft | 443 kts | 217° |
| 2026-04-20 13:47 | 51.20949 | 20.14503 | 27141 ft | 442 kts | 216° |
| 2026-04-20 13:47 | 51.18480 | 20.11548 | 27492 ft | 443 kts | 216° |
| 2026-04-20 13:47 | 51.16051 | 20.08647 | 27784 ft | 445 kts | 216° |
| 2026-04-20 13:47 | 51.13566 | 20.05678 | 28067 ft | 448 kts | 216° |
| 2026-04-20 13:48 | 51.11070 | 20.02702 | 28355 ft | 450 kts | 216° |
| 2026-04-20 13:48 | 51.08559 | 19.99712 | 28732 ft | 450 kts | 216° |
| 2026-04-20 13:48 | 51.06059 | 19.96744 | 29221 ft | 448 kts | 216° |
| 2026-04-20 13:48 | 51.03568 | 19.93789 | 29688 ft | 446 kts | 216° |
| 2026-04-20 13:49 | 51.01083 | 19.90846 | 30090 ft | 445 kts | 216° |
| 2026-04-20 13:49 | 50.98603 | 19.87914 | 30421 ft | 444 kts | 216° |
| 2026-04-20 13:49 | 50.96122 | 19.84986 | 30686 ft | 445 kts | 216° |
| 2026-04-20 13:49 | 50.93636 | 19.82055 | 30942 ft | 446 kts | 216° |
| 2026-04-20 13:50 | 50.91146 | 19.79122 | 31260 ft | 445 kts | 216° |
| 2026-04-20 13:50 | 50.88664 | 19.76202 | 31578 ft | 444 kts | 216° |
| 2026-04-20 13:50 | 50.86178 | 19.73282 | 31793 ft | 446 kts | 216° |
| 2026-04-20 13:50 | 50.83687 | 19.70359 | 32083 ft | 446 kts | 217° |
| 2026-04-20 13:51 | 50.81198 | 19.67442 | 32487 ft | 443 kts | 217° |
| 2026-04-20 13:51 | 50.78721 | 19.64543 | 32742 ft | 444 kts | 217° |
| 2026-04-20 13:51 | 50.76231 | 19.61633 | 32907 ft | 446 kts | 217° |
| 2026-04-20 13:51 | 50.73732 | 19.58716 | 33167 ft | 446 kts | 217° |
| 2026-04-20 13:52 | 50.71238 | 19.55809 | 33463 ft | 446 kts | 217° |
| 2026-04-20 13:52 | 50.68738 | 19.52899 | 33693 ft | 447 kts | 217° |
| 2026-04-20 13:52 | 50.66233 | 19.49987 | 33918 ft | 448 kts | 217° |
| 2026-04-20 13:52 | 50.63720 | 19.47070 | 34007 ft | 451 kts | 218° |
| 2026-04-20 13:53 | 50.58664 | 19.41212 | 34000 ft | 450 kts | 218° |
| 2026-04-20 13:53 | 50.54495 | 19.36397 | 33989 ft | 445 kts | 217° |
| 2026-04-20 13:54 | 50.49520 | 19.30662 | 34006 ft | 444 kts | 217° |
| 2026-04-20 13:54 | 50.44542 | 19.24938 | 33994 ft | 443 kts | 217° |
| 2026-04-20 13:55 | 50.39563 | 19.19229 | 33998 ft | 443 kts | 218° |
| 2026-04-20 13:55 | 50.34579 | 19.13529 | 33995 ft | 443 kts | 217° |
| 2026-04-20 13:56 | 50.29591 | 19.07840 | 33999 ft | 444 kts | 217° |
| 2026-04-20 13:56 | 50.24595 | 19.02157 | 33999 ft | 444 kts | 217° |
| 2026-04-20 13:57 | 50.19592 | 18.96481 | 33997 ft | 445 kts | 218° |
| 2026-04-20 13:57 | 50.14576 | 18.90805 | 33998 ft | 446 kts | 218° |
| 2026-04-20 13:58 | 50.09555 | 18.85139 | 34002 ft | 446 kts | 218° |
| 2026-04-20 13:58 | 50.04520 | 18.79471 | 33998 ft | 446 kts | 218° |
| 2026-04-20 13:59 | 49.99487 | 18.73821 | 33993 ft | 446 kts | 218° |
| 2026-04-20 13:59 | 49.94452 | 18.68182 | 34002 ft | 446 kts | 218° |
| 2026-04-20 14:00 | 49.89416 | 18.62555 | 33989 ft | 446 kts | 218° |
| 2026-04-20 14:00 | 49.84493 | 18.56756 | 33991 ft | 443 kts | 225° |
| 2026-04-20 14:01 | 49.80514 | 18.49569 | 33994 ft | 439 kts | 233° |
| 2026-04-20 14:01 | 49.76705 | 18.42200 | 33987 ft | 438 kts | 233° |
| 2026-04-20 14:02 | 49.72883 | 18.34887 | 33985 ft | 437 kts | 233° |
| 2026-04-20 14:02 | 49.69075 | 18.27674 | 33992 ft | 436 kts | 233° |
| 2026-04-20 14:03 | 49.65237 | 18.20443 | 33992 ft | 435 kts | 233° |
| 2026-04-20 14:03 | 49.61396 | 18.13229 | 33987 ft | 435 kts | 233° |
| 2026-04-20 14:04 | 49.57553 | 18.06029 | 33996 ft | 435 kts | 233° |
| 2026-04-20 14:04 | 49.53705 | 17.98839 | 33990 ft | 435 kts | 233° |
| 2026-04-20 14:05 | 49.49849 | 17.91654 | 33992 ft | 435 kts | 233° |
| 2026-04-20 14:05 | 49.45989 | 17.84481 | 33994 ft | 436 kts | 233° |
| 2026-04-20 14:06 | 49.42121 | 17.77312 | 33987 ft | 436 kts | 232° |
| 2026-04-20 14:06 | 49.38246 | 17.70150 | 33975 ft | 436 kts | 232° |
| 2026-04-20 14:07 | 49.34366 | 17.62999 | 33970 ft | 436 kts | 232° |
| 2026-04-20 14:07 | 49.30486 | 17.55866 | 33979 ft | 435 kts | 232° |
| 2026-04-20 14:08 | 49.26609 | 17.48759 | 33978 ft | 434 kts | 233° |
| 2026-04-20 14:08 | 49.22736 | 17.41678 | 33981 ft | 433 kts | 233° |
| 2026-04-20 14:09 | 49.18870 | 17.34628 | 33992 ft | 432 kts | 233° |
| 2026-04-20 14:09 | 49.15005 | 17.27598 | 33983 ft | 431 kts | 233° |
| 2026-04-20 14:10 | 49.11149 | 17.20603 | 33981 ft | 430 kts | 233° |
| 2026-04-20 14:10 | 49.07296 | 17.13633 | 33995 ft | 429 kts | 233° |
| 2026-04-20 14:11 | 49.03468 | 17.06724 | 33990 ft | 429 kts | 233° |
| 2026-04-20 14:11 | 48.99610 | 16.99782 | 33993 ft | 430 kts | 233° |
| 2026-04-20 14:12 | 48.95746 | 16.92844 | 33994 ft | 430 kts | 233° |
| 2026-04-20 14:12 | 48.91872 | 16.85909 | 33993 ft | 430 kts | 233° |
| 2026-04-20 14:13 | 48.87995 | 16.78984 | 33992 ft | 430 kts | 233° |
| 2026-04-20 14:13 | 48.84113 | 16.72067 | 34001 ft | 430 kts | 233° |
| 2026-04-20 14:14 | 48.80178 | 16.65209 | 33994 ft | 433 kts | 228° |
| 2026-04-20 14:14 | 48.75283 | 16.59760 | 33985 ft | 444 kts | 212° |
| 2026-04-20 14:15 | 48.69651 | 16.55863 | 33996 ft | 445 kts | 209° |
| 2026-04-20 14:15 | 48.63987 | 16.52064 | 34003 ft | 445 kts | 210° |
| 2026-04-20 14:16 | 48.58334 | 16.48235 | 34002 ft | 445 kts | 210° |
| 2026-04-20 14:16 | 48.52701 | 16.44393 | 34004 ft | 443 kts | 210° |
| 2026-04-20 14:17 | 48.47087 | 16.40561 | 34009 ft | 443 kts | 210° |
| 2026-04-20 14:17 | 48.41802 | 16.36959 | 34001 ft | 442 kts | 210° |
| 2026-04-20 14:18 | 48.36400 | 16.33288 | 34003 ft | 442 kts | 210° |
| 2026-04-20 14:18 | 48.30799 | 16.29492 | 33996 ft | 441 kts | 211° |
| 2026-04-20 14:19 | 48.25204 | 16.25709 | 33998 ft | 441 kts | 211° |
| 2026-04-20 14:19 | 48.19613 | 16.21938 | 34005 ft | 441 kts | 211° |
| 2026-04-20 14:20 | 48.14018 | 16.18172 | 33973 ft | 441 kts | 211° |
| 2026-04-20 14:20 | 48.08457 | 16.14439 | 33996 ft | 441 kts | 211° |
| 2026-04-20 14:21 | 48.02817 | 16.10662 | 33998 ft | 442 kts | 211° |
| 2026-04-20 14:21 | 47.97199 | 16.06908 | 34009 ft | 443 kts | 211° |
| 2026-04-20 14:22 | 47.91611 | 16.03185 | 33981 ft | 442 kts | 212° |
| 2026-04-20 14:22 | 47.85999 | 15.99457 | 34004 ft | 440 kts | 212° |
| 2026-04-20 14:23 | 47.80392 | 15.95737 | 33997 ft | 441 kts | 212° |
| 2026-04-20 14:23 | 47.77583 | 15.93875 | 33681 ft | 447 kts | 212° |
| 2026-04-20 14:23 | 47.74746 | 15.91996 | 33293 ft | 443 kts | 212° |
| 2026-04-20 14:24 | 47.71941 | 15.90149 | 32781 ft | 439 kts | 213° |
| 2026-04-20 14:24 | 47.69169 | 15.88328 | 32363 ft | 433 kts | 213° |
| 2026-04-20 14:24 | 47.66430 | 15.86528 | 31907 ft | 429 kts | 213° |
| 2026-04-20 14:24 | 47.63721 | 15.84749 | 31471 ft | 424 kts | 214° |
| 2026-04-20 14:25 | 47.61040 | 15.82986 | 31057 ft | 419 kts | 214° |
| 2026-04-20 14:25 | 47.58383 | 15.81242 | 30627 ft | 416 kts | 214° |
| 2026-04-20 14:25 | 47.55752 | 15.79516 | 30197 ft | 411 kts | 214° |
| 2026-04-20 14:25 | 47.53150 | 15.77816 | 29711 ft | 406 kts | 217° |
| 2026-04-20 14:26 | 47.50588 | 15.76140 | 29303 ft | 399 kts | 216° |
| 2026-04-20 14:26 | 47.48064 | 15.74491 | 28872 ft | 395 kts | 216° |
| 2026-04-20 14:26 | 47.45564 | 15.72857 | 28453 ft | 391 kts | 216° |
| 2026-04-20 14:26 | 47.43095 | 15.71243 | 28047 ft | 386 kts | 216° |
| 2026-04-20 14:27 | 47.40650 | 15.69647 | 27626 ft | 383 kts | 216° |
| 2026-04-20 14:27 | 47.38226 | 15.68066 | 27231 ft | 379 kts | 215° |
| 2026-04-20 14:27 | 47.35823 | 15.66500 | 26770 ft | 376 kts | 215° |
| 2026-04-20 14:27 | 47.33433 | 15.64945 | 26414 ft | 375 kts | 215° |
| 2026-04-20 14:28 | 47.31050 | 15.63392 | 26011 ft | 375 kts | 214° |
| 2026-04-20 14:28 | 47.28657 | 15.61833 | 25598 ft | 376 kts | 214° |
| 2026-04-20 14:28 | 47.26272 | 15.60286 | 25196 ft | 373 kts | 213° |
| 2026-04-20 14:28 | 47.23904 | 15.58756 | 24807 ft | 370 kts | 213° |
| 2026-04-20 14:29 | 47.21553 | 15.57237 | 24417 ft | 367 kts | 213° |
| 2026-04-20 14:29 | 47.19223 | 15.55733 | 24027 ft | 364 kts | 213° |
| 2026-04-20 14:29 | 47.16909 | 15.54240 | 23623 ft | 361 kts | 212° |
| 2026-04-20 14:29 | 47.14622 | 15.52768 | 23169 ft | 357 kts | 212° |
| 2026-04-20 14:30 | 47.12363 | 15.51313 | 22784 ft | 353 kts | 212° |
| 2026-04-20 14:30 | 47.10124 | 15.49871 | 22387 ft | 350 kts | 212° |
| 2026-04-20 14:30 | 47.07930 | 15.48459 | 22004 ft | 348 kts | 212° |
| 2026-04-20 14:30 | 47.05718 | 15.47037 | 21617 ft | 348 kts | 212° |
| 2026-04-20 14:31 | 47.03494 | 15.45604 | 21235 ft | 350 kts | 212° |
| 2026-04-20 14:31 | 47.01264 | 15.44171 | 20837 ft | 350 kts | 211° |
| 2026-04-20 14:31 | 46.99039 | 15.42745 | 20458 ft | 348 kts | 211° |
| 2026-04-20 14:31 | 46.96826 | 15.41329 | 20078 ft | 347 kts | 211° |
| 2026-04-20 14:32 | 46.94619 | 15.39917 | 19675 ft | 346 kts | 210° |
| 2026-04-20 14:32 | 46.92420 | 15.38512 | 19292 ft | 344 kts | 210° |
| 2026-04-20 14:32 | 46.90234 | 15.37118 | 18922 ft | 341 kts | 210° |
| 2026-04-20 14:32 | 46.88067 | 15.35737 | 18557 ft | 338 kts | 210° |
| 2026-04-20 14:33 | 46.85918 | 15.34367 | 18179 ft | 336 kts | 210° |
| 2026-04-20 14:33 | 46.83779 | 15.33005 | 17774 ft | 334 kts | 210° |
| 2026-04-20 14:33 | 46.81658 | 15.31655 | 17400 ft | 331 kts | 209° |
| 2026-04-20 14:33 | 46.79545 | 15.30311 | 17029 ft | 331 kts | 209° |
| 2026-04-20 14:34 | 46.77433 | 15.28968 | 16653 ft | 331 kts | 209° |
| 2026-04-20 14:34 | 46.75317 | 15.27623 | 16269 ft | 333 kts | 209° |
| 2026-04-20 14:34 | 46.73183 | 15.26269 | 15930 ft | 336 kts | 208° |
| 2026-04-20 14:34 | 46.71036 | 15.24907 | 15560 ft | 338 kts | 208° |
| 2026-04-20 14:35 | 46.68876 | 15.23540 | 15158 ft | 340 kts | 208° |
| 2026-04-20 14:35 | 46.66701 | 15.22165 | 14793 ft | 341 kts | 208° |
| 2026-04-20 14:35 | 46.64514 | 15.20783 | 14395 ft | 344 kts | 207° |
| 2026-04-20 14:35 | 46.62319 | 15.19425 | 13808 ft | 350 kts | 207° |
| 2026-04-20 14:36 | 46.60080 | 15.18065 | 13330 ft | 348 kts | 206° |
| 2026-04-20 14:36 | 46.57857 | 15.16722 | 12909 ft | 344 kts | 206° |
| 2026-04-20 14:36 | 46.55657 | 15.15393 | 12519 ft | 341 kts | 207° |
| 2026-04-20 14:36 | 46.53483 | 15.14077 | 12129 ft | 337 kts | 206° |
| 2026-04-20 14:37 | 46.51334 | 15.12774 | 11772 ft | 333 kts | 206° |
| 2026-04-20 14:37 | 46.49207 | 15.11484 | 11399 ft | 330 kts | 206° |
| 2026-04-20 14:37 | 46.47093 | 15.10203 | 11023 ft | 328 kts | 206° |
| 2026-04-20 14:37 | 46.44997 | 15.08934 | 10657 ft | 325 kts | 206° |
| 2026-04-20 14:38 | 46.42927 | 15.07682 | 10459 ft | 317 kts | 206° |
| 2026-04-20 14:38 | 46.40918 | 15.06469 | 10315 ft | 308 kts | 206° |
| 2026-04-20 14:38 | 46.38963 | 15.05288 | 10175 ft | 300 kts | 206° |
| 2026-04-20 14:38 | 46.37068 | 15.04143 | 10074 ft | 290 kts | 206° |
| 2026-04-20 14:39 | 46.35235 | 15.03038 | 10017 ft | 280 kts | 206° |
| 2026-04-20 14:39 | 46.33430 | 15.01949 | 9610 ft | 283 kts | 206° |
| 2026-04-20 14:39 | 46.31623 | 15.00858 | 9315 ft | 280 kts | 206° |
| 2026-04-20 14:39 | 46.29933 | 14.99512 | 8979 ft | 275 kts | 218° |
| 2026-04-20 14:40 | 46.28391 | 14.97895 | 8693 ft | 273 kts | 219° |
| 2026-04-20 14:40 | 46.26865 | 14.96275 | 8415 ft | 272 kts | 218° |
| 2026-04-20 14:40 | 46.25344 | 14.94676 | 8131 ft | 270 kts | 218° |
| 2026-04-20 14:40 | 46.23818 | 14.93106 | 7834 ft | 268 kts | 218° |
| 2026-04-20 14:41 | 46.22298 | 14.91562 | 7563 ft | 266 kts | 218° |
| 2026-04-20 14:41 | 46.20787 | 14.90034 | 7300 ft | 264 kts | 218° |
| 2026-04-20 14:41 | 46.19288 | 14.88520 | 7022 ft | 261 kts | 218° |
| 2026-04-20 14:41 | 46.17807 | 14.87027 | 6764 ft | 258 kts | 217° |
| 2026-04-20 14:42 | 46.16836 | 14.86048 | 6582 ft | 256 kts | 217° |
| 2026-04-20 14:42 | 46.15378 | 14.84577 | 6297 ft | 256 kts | 217° |
| 2026-04-20 14:42 | 46.13946 | 14.83135 | 6198 ft | 245 kts | 217° |
| 2026-04-20 14:42 | 46.12580 | 14.81763 | 6055 ft | 233 kts | 217° |
| 2026-04-20 14:43 | 46.11267 | 14.80442 | 5949 ft | 228 kts | 217° |
| 2026-04-20 14:43 | 46.09969 | 14.79138 | 5844 ft | 227 kts | 217° |
| 2026-04-20 14:43 | 46.08724 | 14.77752 | 5707 ft | 227 kts | 230° |
| 2026-04-20 14:43 | 46.08081 | 14.75712 | 5488 ft | 227 kts | 263° |
| 2026-04-20 14:44 | 46.08275 | 14.73459 | 5239 ft | 231 kts | 290° |
| 2026-04-20 14:44 | 46.09110 | 14.71472 | 4996 ft | 232 kts | 304° |
| 2026-04-20 14:44 | 46.10086 | 14.69628 | 4726 ft | 230 kts | 306° |
| 2026-04-20 14:44 | 46.11041 | 14.67802 | 4468 ft | 227 kts | 305° |
| 2026-04-20 14:45 | 46.11977 | 14.65992 | 4193 ft | 223 kts | 304° |
| 2026-04-20 14:45 | 46.12899 | 14.64252 | 4029 ft | 212 kts | 307° |
| 2026-04-20 14:45 | 46.13782 | 14.62611 | 3784 ft | 204 kts | 306° |
| 2026-04-20 14:45 | 46.14619 | 14.60985 | 3527 ft | 200 kts | 305° |
| 2026-04-20 14:46 | 46.15439 | 14.59368 | 3252 ft | 198 kts | 305° |
| 2026-04-20 14:46 | 46.16240 | 14.57795 | 2993 ft | 190 kts | 306° |
| 2026-04-20 14:46 | 46.17004 | 14.56293 | 2770 ft | 181 kts | 307° |
| 2026-04-20 14:46 | 46.17724 | 14.54875 | 2509 ft | 173 kts | 306° |
| 2026-04-20 14:47 | 46.18423 | 14.53496 | 2265 ft | 169 kts | 307° |
| 2026-04-20 14:47 | 46.19115 | 14.52121 | 2048 ft | 168 kts | 307° |
| 2026-04-20 14:47 | 46.19815 | 14.50758 | 1793 ft | 170 kts | 307° |
| 2026-04-20 14:48 | 46.21229 | 14.47985 | 1314 ft | 170 kts | 307° |
| 2026-04-20 14:48 | 46.21916 | 14.46647 | 1224 ft | 152 kts | 306° |
| 2026-04-20 14:48 | 46.22417 | 14.45670 | 1258 ft | 90 kts | 307° |
| 2026-04-20 14:48 | 46.22649 | 14.45372 | 1259 ft | 34 kts | 339° |
| 2026-04-20 14:49 | 46.22770 | 14.45327 | 1257 ft | 11 kts | 349° |
| 2026-04-20 14:49 | 46.22845 | 14.45319 | 1258 ft | 11 kts | 15° |
| 2026-04-20 14:49 | 46.22905 | 14.45381 | 1262 ft | 10 kts | 37° |
| 2026-04-20 14:49 | 46.22956 | 14.45406 | 1257 ft | 7 kts | 332° |
| 2026-04-20 14:50 | 46.22983 | 14.45352 | 1261 ft | 4 kts | 304° |
| 2026-04-20 14:50 | 46.22997 | 14.45330 | 1262 ft | 3 kts | 328° |
| 2026-04-20 14:50 | 46.23013 | 14.45332 | 1260 ft | 3 kts | 31° |
| 2026-04-20 14:50 | 46.23028 | 14.45348 | 1257 ft | 3 kts | 36° |
| 2026-04-20 14:51 | 46.23042 | 14.45363 | 1262 ft | 2 kts | 36° |
| 2026-04-20 14:51 | 46.23050 | 14.45372 | 1259 ft | 1 kts | 36° |
| 2026-04-20 14:51 | 46.23051 | 14.45373 | 1259 ft | 0 kts | 36° |